createdAt,value
2023-05-04T00:00:22.211Z,99.90
2023-05-04T00:02:23.983Z,99.90
2023-05-04T00:04:26.801Z,99.90
2023-05-04T00:06:29.586Z,99.90
2023-05-04T00:08:31.700Z,99.90
2023-05-04T00:10:34.354Z,99.90
2023-05-04T00:12:37.054Z,99.90
2023-05-04T00:14:38.646Z,99.90
2023-05-04T00:16:40.444Z,99.90
2023-05-04T00:18:42.261Z,99.90
2023-05-04T00:20:46.125Z,99.90
2023-05-04T00:22:47.805Z,99.90
2023-05-04T00:24:49.497Z,99.90
2023-05-04T00:26:51.144Z,99.90
2023-05-04T00:28:52.766Z,99.90
2023-05-04T00:30:54.719Z,99.90
2023-05-04T00:32:56.502Z,99.90
2023-05-04T00:34:59.623Z,99.90
2023-05-04T00:37:01.339Z,99.90
2023-05-04T00:39:03.123Z,99.90
2023-05-04T00:41:04.819Z,99.90
2023-05-04T00:43:06.516Z,99.90
2023-05-04T00:45:08.351Z,99.90
2023-05-04T00:47:10.096Z,99.90
2023-05-04T00:49:11.823Z,99.90
2023-05-04T00:51:14.347Z,99.90
2023-05-04T00:53:16.341Z,99.90
2023-05-04T00:55:18.032Z,99.90
2023-05-04T00:57:19.881Z,99.90
2023-05-04T00:59:21.662Z,99.90
2023-05-04T01:01:23.659Z,99.90
2023-05-04T01:03:26.421Z,99.90
2023-05-04T01:05:31.482Z,99.90
2023-05-04T01:07:39.545Z,99.90
2023-05-04T01:09:50.581Z,99.90
2023-05-04T01:11:59.698Z,99.90
2023-05-04T01:14:01.898Z,99.90
2023-05-04T01:16:04.007Z,99.90
2023-05-04T01:18:06.906Z,99.90
2023-05-04T01:20:09.479Z,99.90
2023-05-04T01:22:11.112Z,99.90
2023-05-04T01:24:13.263Z,99.90
2023-05-04T01:26:22.933Z,99.90
2023-05-04T01:28:31.105Z,99.90
2023-05-04T01:30:38.452Z,99.90
2023-05-04T01:32:41.853Z,99.90
2023-05-04T01:34:43.630Z,99.90
2023-05-04T01:36:45.698Z,99.90
2023-05-04T01:38:48.162Z,99.90
2023-05-04T01:40:49.787Z,99.90
2023-05-04T01:42:51.398Z,99.90
2023-05-04T01:44:53.157Z,99.90
2023-05-04T01:46:54.757Z,99.90
2023-05-04T01:48:56.393Z,99.90
2023-05-04T01:50:58.069Z,99.90
2023-05-04T01:53:00.772Z,99.90
2023-05-04T01:55:02.451Z,99.90
2023-05-04T01:57:04.200Z,99.90
2023-05-04T01:59:05.847Z,99.90
2023-05-04T02:01:08.167Z,99.90
2023-05-04T02:03:09.944Z,99.90
2023-05-04T02:05:11.718Z,99.90
2023-05-04T02:07:13.836Z,99.90
2023-05-04T02:09:15.596Z,99.90
2023-05-04T02:11:17.206Z,99.90
2023-05-04T02:13:18.983Z,99.90
2023-05-04T02:15:20.615Z,99.90
2023-05-04T02:17:22.218Z,99.90
2023-05-04T02:19:23.874Z,99.90
2023-05-04T02:21:25.669Z,99.90
2023-05-04T02:23:27.511Z,99.90
2023-05-04T02:25:29.247Z,99.90
2023-05-04T02:27:32.015Z,99.90
2023-05-04T02:29:33.673Z,99.90
2023-05-04T02:31:35.487Z,99.90
2023-05-04T02:33:37.245Z,99.90
2023-05-04T02:35:38.867Z,99.90
2023-05-04T02:37:40.512Z,99.90
2023-05-04T02:39:42.343Z,99.90
2023-05-04T02:41:46.945Z,99.90
2023-05-04T02:43:48.597Z,99.90
2023-05-04T02:45:50.268Z,99.90
2023-05-04T02:47:52.011Z,99.90
2023-05-04T02:49:53.731Z,99.90
2023-05-04T02:51:55.485Z,99.90
2023-05-04T02:53:57.235Z,99.90
2023-05-04T02:56:00.617Z,99.90
2023-05-04T02:58:02.622Z,99.90
2023-05-04T03:00:06.959Z,99.90
2023-05-04T03:02:08.910Z,99.90
2023-05-04T03:04:11.621Z,99.90
2023-05-04T03:06:13.278Z,99.90
2023-05-04T03:08:16.137Z,99.90
2023-05-04T03:10:18.822Z,99.90
2023-05-04T03:12:21.644Z,99.90
2023-05-04T03:14:23.271Z,99.90
2023-05-04T03:16:24.908Z,99.90
2023-05-04T03:18:26.714Z,99.90
2023-05-04T03:20:28.448Z,99.90
2023-05-04T03:22:30.178Z,99.90
2023-05-04T03:24:31.876Z,99.90
2023-05-04T03:26:33.611Z,99.90
2023-05-04T03:28:36.443Z,99.90
2023-05-04T03:30:39.213Z,99.90
2023-05-04T03:32:41.859Z,99.90
2023-05-04T03:34:49.581Z,99.90
2023-05-04T03:36:51.224Z,99.90
2023-05-04T03:38:53.883Z,99.90
2023-05-04T03:40:56.759Z,99.90
2023-05-04T03:42:58.375Z,99.90
2023-05-04T03:45:01.132Z,99.90
2023-05-04T03:47:06.088Z,99.90
2023-05-04T03:49:15.885Z,99.90
2023-05-04T03:51:18.633Z,99.90
2023-05-04T03:53:20.366Z,99.90
2023-05-04T03:55:22.024Z,99.90
2023-05-04T03:57:24.271Z,99.90
2023-05-04T03:59:25.997Z,99.90
2023-05-04T04:01:27.653Z,99.90
2023-05-04T04:03:29.610Z,99.90
2023-05-04T04:05:31.274Z,99.90
2023-05-04T04:07:34.051Z,99.90
2023-05-04T04:09:35.720Z,99.90
2023-05-04T04:11:37.435Z,99.90
2023-05-04T04:13:39.066Z,99.90
2023-05-04T04:15:42.579Z,99.90
2023-05-04T04:17:45.521Z,99.90
2023-05-04T04:19:47.361Z,99.90
2023-05-04T04:21:49.076Z,99.90
2023-05-04T04:23:50.848Z,99.90
2023-05-04T04:25:54.023Z,99.90
2023-05-04T04:27:55.727Z,99.90
2023-05-04T04:29:57.685Z,99.90
2023-05-04T04:31:59.429Z,99.90
2023-05-04T04:34:01.191Z,99.90
2023-05-04T04:36:02.945Z,99.90
2023-05-04T04:38:05.055Z,99.90
2023-05-04T04:40:08.035Z,99.90
2023-05-04T04:42:09.685Z,99.90
2023-05-04T04:44:11.667Z,99.90
2023-05-04T04:46:13.433Z,99.90
2023-05-04T04:48:15.227Z,99.90
2023-05-04T04:50:17.477Z,99.90
2023-05-04T04:52:19.249Z,99.90
2023-05-04T04:54:21.082Z,99.90
2023-05-04T04:56:22.804Z,99.90
2023-05-04T04:58:25.492Z,99.90
2023-05-04T05:00:27.115Z,99.90
2023-05-04T05:04:32.076Z,99.90
2023-05-04T05:06:33.768Z,99.90
2023-05-04T05:08:35.370Z,99.90
2023-05-04T05:10:37.062Z,99.90
2023-05-04T05:12:38.839Z,99.90
2023-05-04T05:14:40.444Z,99.90
2023-05-04T05:16:42.147Z,99.90
2023-05-04T05:18:43.867Z,99.90
2023-05-04T05:20:45.563Z,99.90
2023-05-04T05:22:48.503Z,99.90
2023-05-04T05:24:50.250Z,99.90
2023-05-04T05:26:53.086Z,99.90
2023-05-04T05:29:46.383Z,99.90
2023-05-04T05:31:53.378Z,99.90
2023-05-04T05:33:55.312Z,99.90
2023-05-04T05:35:57.069Z,99.90
2023-05-04T05:38:04.977Z,99.90
2023-05-04T05:40:08.180Z,99.90
2023-05-04T05:42:11.405Z,99.90
2023-05-04T05:44:13.372Z,99.90
2023-05-04T05:46:15.151Z,99.90
2023-05-04T05:48:16.772Z,99.90
2023-05-04T05:50:20.296Z,99.90
2023-05-04T05:52:22.012Z,99.90
2023-05-04T05:54:23.689Z,99.90
2023-05-04T05:56:25.638Z,99.90
2023-05-04T05:58:31.558Z,99.90
2023-05-04T06:00:33.240Z,99.90
2023-05-04T06:02:35.160Z,99.90
2023-05-04T06:04:43.255Z,99.90
2023-05-04T06:06:46.820Z,99.90
2023-05-04T06:08:50.634Z,99.90
2023-05-04T06:10:54.596Z,99.90
2023-05-04T06:12:57.571Z,99.90
2023-05-04T06:14:59.273Z,99.90
2023-05-04T06:17:03.043Z,99.90
2023-05-04T06:19:05.668Z,99.90
2023-05-04T06:21:07.335Z,99.90
2023-05-04T06:23:08.966Z,99.90
2023-05-04T06:25:11.480Z,99.90
2023-05-04T06:27:14.231Z,99.90
2023-05-04T06:29:15.956Z,99.90
2023-05-04T06:31:18.810Z,99.90
2023-05-04T06:33:21.945Z,99.90
2023-05-04T06:35:24.884Z,99.90
2023-05-04T06:37:28.795Z,99.90
2023-05-04T06:39:31.142Z,99.90
2023-05-04T06:41:33.168Z,99.90
2023-05-04T06:43:35.169Z,99.90
2023-05-04T06:45:37.250Z,99.90
2023-05-04T06:47:41.784Z,99.90
2023-05-04T06:49:44.699Z,99.90
2023-05-04T06:51:53.574Z,99.90
2023-05-04T06:53:55.591Z,99.90
2023-05-04T06:55:58.413Z,99.90
2023-05-04T06:58:00.834Z,99.90
2023-05-04T07:00:04.555Z,99.90
2023-05-04T07:02:17.948Z,99.90
2023-05-04T07:04:34.209Z,99.90
2023-05-04T07:06:35.979Z,99.90
2023-05-04T07:08:38.592Z,99.90
2023-05-04T07:10:42.353Z,99.90
2023-05-04T07:12:45.802Z,99.90
2023-05-04T07:14:49.706Z,99.90
2023-05-04T07:16:51.595Z,99.90
2023-05-04T07:18:54.268Z,99.90
2023-05-04T07:21:01.816Z,99.90
2023-05-04T07:23:08.258Z,99.90
2023-05-04T07:25:11.344Z,99.90
2023-05-04T07:27:14.340Z,99.90
2023-05-04T07:29:16.170Z,99.90
2023-05-04T07:31:18.038Z,99.90
2023-05-04T07:33:20.947Z,99.90
2023-05-04T07:35:22.969Z,99.90
2023-05-04T07:37:25.937Z,99.90
2023-05-04T07:39:29.942Z,99.90
2023-05-04T07:41:31.916Z,99.90
2023-05-04T07:43:33.868Z,99.90
2023-05-04T07:45:35.764Z,99.90
2023-05-04T07:47:38.462Z,99.90
2023-05-04T07:49:47.216Z,99.90
2023-05-04T07:51:49.163Z,99.90
2023-05-04T07:53:50.857Z,99.90
2023-05-04T07:56:01.077Z,99.90
2023-05-04T07:58:04.108Z,99.90
2023-05-04T08:00:07.633Z,99.90
2023-05-04T08:02:10.390Z,99.90
2023-05-04T08:04:12.492Z,99.90
2023-05-04T08:06:14.449Z,99.90
2023-05-04T08:08:16.336Z,99.90
2023-05-04T08:10:19.459Z,99.90
2023-05-04T08:12:21.585Z,99.90
2023-05-04T08:14:23.651Z,99.90
2023-05-04T08:16:25.997Z,99.90
2023-05-04T08:18:28.325Z,99.90
2023-05-04T08:20:30.423Z,99.90
2023-05-04T08:22:32.630Z,99.90
2023-05-04T08:24:35.357Z,99.90
2023-05-04T08:26:39.686Z,99.90
2023-05-04T08:28:41.709Z,99.90
2023-05-04T08:30:43.576Z,99.90
2023-05-04T08:32:45.626Z,99.90
2023-05-04T08:34:50.994Z,99.90
2023-05-04T08:36:52.864Z,99.90
2023-05-04T08:38:54.892Z,99.90
2023-05-04T08:40:57.852Z,99.90
2023-05-04T08:43:03.131Z,99.90
2023-05-04T08:45:06.044Z,99.90
2023-05-04T08:47:09.334Z,99.90
2023-05-04T08:49:12.650Z,99.90
2023-05-04T08:51:17.243Z,99.90
2023-05-04T08:53:19.611Z,99.90
2023-05-04T08:55:24.076Z,99.90
2023-05-04T08:57:27.129Z,99.90
2023-05-04T08:59:32.037Z,99.90
2023-05-04T09:01:38.094Z,99.90
2023-05-04T09:03:40.408Z,99.90
2023-05-04T09:05:43.815Z,99.90
2023-05-04T09:07:48.809Z,99.90
2023-05-04T09:09:58.405Z,99.90
2023-05-04T09:12:01.947Z,99.90
2023-05-04T09:14:05.051Z,99.90
2023-05-04T09:16:07.906Z,99.90
2023-05-04T09:18:12.387Z,99.90
2023-05-04T09:20:14.577Z,99.90
2023-05-04T09:22:17.559Z,99.90
2023-05-04T09:24:27.080Z,99.90
2023-05-04T09:26:31.059Z,99.90
2023-05-04T09:28:39.665Z,99.90
2023-05-04T09:30:41.753Z,99.90
2023-05-04T09:32:47.557Z,99.90
2023-05-04T09:34:55.789Z,99.90
2023-05-04T09:36:58.762Z,99.90
2023-05-04T09:39:11.298Z,99.90
2023-05-04T09:41:13.599Z,99.90
2023-05-04T09:43:16.678Z,99.90
2023-05-04T09:45:26.927Z,99.90
2023-05-04T09:47:36.082Z,99.90
2023-05-04T09:49:39.377Z,99.90
2023-05-04T09:51:42.050Z,99.90
2023-05-04T09:53:44.271Z,99.90
2023-05-04T09:55:47.996Z,99.90
2023-05-04T09:57:53.772Z,99.90
2023-05-04T09:59:56.177Z,99.90
2023-05-04T10:02:04.822Z,99.90
2023-05-04T10:04:17.580Z,99.90
2023-05-04T10:06:22.038Z,99.90
2023-05-04T10:08:24.417Z,99.90
2023-05-04T10:10:27.310Z,99.90
2023-05-04T10:12:30.276Z,99.90
2023-05-04T10:14:33.811Z,99.90
2023-05-04T10:16:45.901Z,99.90
2023-05-04T10:18:55.132Z,99.90
2023-05-04T10:20:59.384Z,99.90
2023-05-04T10:23:14.495Z,99.90
2023-05-04T10:25:35.470Z,99.90
2023-05-04T10:27:49.077Z,99.90
2023-05-04T10:29:51.767Z,99.90
2023-05-04T10:31:55.690Z,99.90
2023-05-04T10:33:58.879Z,99.90
2023-05-04T10:36:02.115Z,99.90
2023-05-04T10:38:06.769Z,99.90
2023-05-04T10:40:14.605Z,99.90
2023-05-04T10:42:17.790Z,99.90
2023-05-04T10:44:19.893Z,99.90
2023-05-04T10:46:22.916Z,99.90
2023-05-04T10:48:36.139Z,99.90
2023-05-04T10:50:46.524Z,99.90
2023-05-04T10:52:53.943Z,99.90
2023-05-04T10:55:05.725Z,99.90
2023-05-04T10:57:12.794Z,99.90
2023-05-04T10:59:15.195Z,99.90
2023-05-04T11:01:19.868Z,99.90
2023-05-04T11:03:38.253Z,99.90
2023-05-04T11:05:44.663Z,99.90
2023-05-04T11:07:53.020Z,99.90
2023-05-04T11:10:01.408Z,99.90
2023-05-04T11:12:03.681Z,99.90
2023-05-04T11:14:06.939Z,99.90
2023-05-04T11:16:12.621Z,99.90
2023-05-04T11:18:17.408Z,99.90
2023-05-04T11:20:24.592Z,99.90
2023-05-04T11:22:28.365Z,99.90
2023-05-04T11:24:54.233Z,98.80
2023-05-04T11:26:58.589Z,99.40
2023-05-04T11:29:11.603Z,98.50
2023-05-04T11:31:17.173Z,98.50
2023-05-04T11:33:25.478Z,98.10
2023-05-04T11:35:27.554Z,93.90
2023-05-04T11:37:30.146Z,91.60
2023-05-04T11:39:33.774Z,93.70
2023-05-04T11:41:43.799Z,96.80
2023-05-04T11:43:46.527Z,88.90
2023-05-04T11:45:49.029Z,86.20
2023-05-04T11:47:53.151Z,87.60
2023-05-04T11:49:55.458Z,80.70
2023-05-04T11:52:08.037Z,82.40
2023-05-04T11:54:22.341Z,82.10
2023-05-04T11:56:25.233Z,79.30
2023-05-04T11:58:27.224Z,80.80
2023-05-04T12:00:37.492Z,77.20
2023-05-04T12:02:42.186Z,73.10
2023-05-04T12:04:51.714Z,81.30
2023-05-04T12:06:54.244Z,87.30
2023-05-04T12:09:04.123Z,78.30
2023-05-04T12:11:25.685Z,76.10
2023-05-04T12:13:35.587Z,76.90
2023-05-04T12:15:42.661Z,84.60
2023-05-04T12:17:51.614Z,72.40
2023-05-04T12:19:57.804Z,74.30
2023-05-04T12:22:05.260Z,73.50
2023-05-04T12:24:08.429Z,74.60
2023-05-04T12:26:19.572Z,71.40
2023-05-04T12:28:26.797Z,69.80
2023-05-04T12:30:32.749Z,73.50
2023-05-04T12:32:37.386Z,71.00
2023-05-04T12:34:44.767Z,76.80
2023-05-04T12:36:47.056Z,72.30
2023-05-04T12:38:53.072Z,72.70
2023-05-04T12:41:04.801Z,71.80
2023-05-04T12:43:08.208Z,69.50
2023-05-04T12:45:16.210Z,65.80
2023-05-04T12:47:24.617Z,75.00
2023-05-04T12:49:33.635Z,74.60
2023-05-04T12:51:36.265Z,65.40
2023-05-04T12:53:41.338Z,68.80
2023-05-04T12:55:50.323Z,71.80
2023-05-04T12:57:53.413Z,64.50
2023-05-04T12:59:57.309Z,69.40
2023-05-04T13:01:59.570Z,63.10
2023-05-04T13:04:03.093Z,67.30
2023-05-04T13:06:06.020Z,68.80
2023-05-04T13:08:09.512Z,67.60
2023-05-04T13:10:13.410Z,67.20
2023-05-04T13:12:15.639Z,65.60
2023-05-04T13:14:17.832Z,64.00
2023-05-04T13:16:19.931Z,64.70
2023-05-04T13:18:27.624Z,67.30
2023-05-04T13:20:35.803Z,66.80
2023-05-04T13:22:38.301Z,70.30
2023-05-04T13:24:40.282Z,68.70
2023-05-04T13:26:49.512Z,63.60
2023-05-04T13:28:53.156Z,67.70
2023-05-04T13:31:06.334Z,64.30
2023-05-04T13:33:20.767Z,64.40
2023-05-04T13:35:33.189Z,62.30
2023-05-04T13:37:38.787Z,64.40
2023-05-04T13:39:43.670Z,59.80
2023-05-04T13:41:57.919Z,64.40
2023-05-04T13:44:00.416Z,65.70
2023-05-04T13:46:04.108Z,64.10
2023-05-04T13:48:06.761Z,61.60
2023-05-04T13:50:09.252Z,59.60
2023-05-04T13:52:14.738Z,67.90
2023-05-04T13:54:17.166Z,66.20
2023-05-04T13:56:19.154Z,68.50
2023-05-04T13:58:33.990Z,69.30
2023-05-04T14:00:39.246Z,71.30
2023-05-04T14:02:53.013Z,72.50
2023-05-04T14:04:55.457Z,73.30
2023-05-04T14:07:14.415Z,71.40
2023-05-04T14:09:26.505Z,71.00
2023-05-04T14:11:44.024Z,72.20
2023-05-04T14:13:48.639Z,72.20
2023-05-04T14:15:59.154Z,67.20
2023-05-04T14:18:12.829Z,69.60
2023-05-04T14:20:21.919Z,68.10
2023-05-04T14:22:25.574Z,70.40
2023-05-04T14:24:28.993Z,76.60
2023-05-04T14:26:38.256Z,73.20
2023-05-04T14:28:41.628Z,70.20
2023-05-04T14:30:49.825Z,68.50
2023-05-04T14:32:53.399Z,68.80
2023-05-04T14:35:01.899Z,69.30
2023-05-04T14:37:03.684Z,68.00
2023-05-04T14:39:08.187Z,74.60
2023-05-04T14:41:13.770Z,68.60
2023-05-04T14:43:21.880Z,67.70
2023-05-04T14:45:23.940Z,67.60
2023-05-04T14:47:31.963Z,66.50
2023-05-04T14:49:37.214Z,72.20
2023-05-04T14:51:41.756Z,73.90
2023-05-04T14:53:46.898Z,67.40
2023-05-04T14:55:50.719Z,65.20
2023-05-04T14:57:52.516Z,74.10
2023-05-04T14:59:55.779Z,68.50
2023-05-04T15:01:59.128Z,68.00
2023-05-04T15:04:01.179Z,64.60
2023-05-04T15:06:04.112Z,67.20
2023-05-04T15:08:24.673Z,61.90
2023-05-04T15:10:37.466Z,59.20
2023-05-04T15:12:40.313Z,63.20
2023-05-04T15:14:43.596Z,57.50
2023-05-04T15:16:46.473Z,63.40
2023-05-04T15:18:48.434Z,55.30
2023-05-04T15:20:50.635Z,60.30
2023-05-04T15:23:00.304Z,57.80
2023-05-04T15:25:02.388Z,55.80
2023-05-04T15:27:04.484Z,56.30
2023-05-04T15:29:16.247Z,57.10
2023-05-04T15:31:22.444Z,58.50
2023-05-04T15:33:39.092Z,57.30
2023-05-04T15:35:44.209Z,59.10
2023-05-04T15:37:47.246Z,58.40
2023-05-04T15:39:57.870Z,59.50
2023-05-04T15:42:03.237Z,58.10
2023-05-04T15:44:07.025Z,58.30
2023-05-04T15:46:09.178Z,60.60
2023-05-04T15:48:23.326Z,59.80
2023-05-04T15:50:25.537Z,63.20
2023-05-04T15:52:34.569Z,61.70
2023-05-04T15:54:48.176Z,63.70
2023-05-04T15:56:51.181Z,60.10
2023-05-04T15:58:53.879Z,60.00
2023-05-04T16:00:56.239Z,58.00
2023-05-04T16:02:58.172Z,61.10
2023-05-04T16:05:01.488Z,60.00
2023-05-04T16:07:03.961Z,58.90
2023-05-04T16:09:08.301Z,66.00
2023-05-04T16:11:11.261Z,62.80
2023-05-04T16:13:13.391Z,65.30
2023-05-04T16:15:15.358Z,63.70
2023-05-04T16:17:17.212Z,64.00
2023-05-04T16:19:27.317Z,70.50
2023-05-04T16:21:32.143Z,71.90
2023-05-04T16:23:36.834Z,84.40
2023-05-04T16:25:47.008Z,78.10
2023-05-04T16:27:56.686Z,75.70
2023-05-04T16:29:58.666Z,78.80
2023-05-04T16:32:00.417Z,72.00
2023-05-04T16:34:02.510Z,75.80
2023-05-04T16:36:07.522Z,75.90
2023-05-04T16:38:11.256Z,76.70
2023-05-04T16:40:14.345Z,79.30
2023-05-04T16:42:16.177Z,83.70
2023-05-04T16:44:24.226Z,76.00
2023-05-04T16:46:26.555Z,83.10
2023-05-04T16:48:28.311Z,83.10
2023-05-04T16:50:30.126Z,81.10
2023-05-04T16:52:32.961Z,81.00
2023-05-04T16:54:34.846Z,77.50
2023-05-04T16:56:37.506Z,77.10
2023-05-04T16:58:39.642Z,74.90
2023-05-04T17:00:42.024Z,78.20
2023-05-04T17:02:43.755Z,78.00
2023-05-04T17:04:45.575Z,82.10
2023-05-04T17:06:47.273Z,83.00
2023-05-04T17:08:49.060Z,83.70
2023-05-04T17:10:50.805Z,81.00
2023-05-04T17:12:53.247Z,87.30
2023-05-04T17:14:55.091Z,79.20
2023-05-04T17:16:56.764Z,78.90
2023-05-04T17:19:00.528Z,78.90
2023-05-04T17:21:02.232Z,78.90
2023-05-04T17:23:04.029Z,80.50
2023-05-04T17:25:06.020Z,77.90
2023-05-04T17:27:07.681Z,79.60
2023-05-04T17:29:09.441Z,82.10
2023-05-04T17:31:14.457Z,81.40
2023-05-04T17:33:16.444Z,82.30
2023-05-04T17:35:25.421Z,83.50
2023-05-04T17:37:28.485Z,85.90
2023-05-04T17:39:31.633Z,83.50
2023-05-04T17:41:35.505Z,85.50
2023-05-04T17:43:39.908Z,84.50
2023-05-04T17:45:41.862Z,82.90
2023-05-04T17:47:44.861Z,84.60
2023-05-04T17:49:47.658Z,84.40
2023-05-04T17:51:49.417Z,87.10
2023-05-04T17:53:51.125Z,88.60
2023-05-04T17:55:53.818Z,90.20
2023-05-04T17:57:57.554Z,93.00
2023-05-04T18:00:00.013Z,96.70
2023-05-04T18:02:03.197Z,96.10
2023-05-04T18:04:05.129Z,97.90
2023-05-04T18:06:08.031Z,98.70
2023-05-04T18:08:10.749Z,94.90
2023-05-04T18:10:12.771Z,94.00
2023-05-04T18:12:14.556Z,96.00
2023-05-04T18:14:16.231Z,95.80
2023-05-04T18:16:17.979Z,95.70
2023-05-04T18:18:19.732Z,95.70
2023-05-04T18:20:21.432Z,97.30
2023-05-04T18:22:23.110Z,99.90
2023-05-04T18:24:24.748Z,99.90
2023-05-04T18:26:26.884Z,97.90
2023-05-04T18:28:28.580Z,98.30
2023-05-04T18:30:31.710Z,99.90
2023-05-04T18:32:33.535Z,99.90
2023-05-04T18:34:35.301Z,99.90
2023-05-04T18:36:38.004Z,99.90
2023-05-04T18:38:39.845Z,99.90
2023-05-04T18:40:41.528Z,99.90
2023-05-04T18:42:43.160Z,99.90
2023-05-04T18:44:44.966Z,99.90
2023-05-04T18:46:46.912Z,99.90
2023-05-04T18:48:48.715Z,99.90
2023-05-04T18:50:52.555Z,99.90
2023-05-04T18:52:54.403Z,99.90
2023-05-04T18:54:56.114Z,99.90
2023-05-04T18:56:58.238Z,99.90
2023-05-04T18:58:59.963Z,99.90
2023-05-04T19:01:01.933Z,99.90
2023-05-04T19:03:04.625Z,99.90
2023-05-04T19:05:07.523Z,99.90
2023-05-04T19:07:12.148Z,99.90
2023-05-04T19:09:14.601Z,99.90
2023-05-04T19:11:18.587Z,99.90
2023-05-04T19:13:20.907Z,99.90
2023-05-04T19:15:23.935Z,99.90
2023-05-04T19:17:25.689Z,99.90
2023-05-04T19:19:27.505Z,99.90
2023-05-04T19:21:29.267Z,99.90
2023-05-04T19:23:36.788Z,99.90
2023-05-04T19:25:38.434Z,99.90
2023-05-04T19:27:40.053Z,99.90
2023-05-04T19:29:41.760Z,99.90
2023-05-04T19:31:43.691Z,99.90
2023-05-04T19:33:48.770Z,99.90
2023-05-04T19:35:51.140Z,99.90
2023-05-04T19:37:52.768Z,99.90
2023-05-04T19:39:54.735Z,99.90
2023-05-04T19:41:56.587Z,99.90
2023-05-04T19:43:58.417Z,99.90
2023-05-04T19:46:04.322Z,99.90
2023-05-04T19:48:13.179Z,99.90
2023-05-04T19:50:16.576Z,99.90
2023-05-04T19:52:18.254Z,99.90
2023-05-04T19:54:19.965Z,99.90
2023-05-04T19:56:22.770Z,99.90
2023-05-04T19:58:26.433Z,99.90
2023-05-04T20:00:28.281Z,99.90
2023-05-04T20:02:30.709Z,99.90
2023-05-04T20:04:32.473Z,99.90
2023-05-04T20:06:35.142Z,99.90
2023-05-04T20:08:36.738Z,99.90
2023-05-04T20:10:38.528Z,99.90
2023-05-04T20:12:43.791Z,99.90
2023-05-04T20:14:45.557Z,99.90
2023-05-04T20:16:51.561Z,99.90
2023-05-04T20:19:01.898Z,99.90
2023-05-04T20:21:10.898Z,99.90
2023-05-04T20:23:13.094Z,99.90
2023-05-04T20:25:15.229Z,99.90
2023-05-04T20:27:16.985Z,99.90
2023-05-04T20:29:18.765Z,99.90
2023-05-04T20:31:20.439Z,99.90
2023-05-04T20:33:22.067Z,99.90
2023-05-04T20:35:23.897Z,99.90
2023-05-04T20:37:28.287Z,99.90
2023-05-04T20:39:30.927Z,99.90
2023-05-04T20:41:33.126Z,99.90
2023-05-04T20:43:35.318Z,99.90
2023-05-04T20:45:37.075Z,99.90
2023-05-04T20:47:39.251Z,99.90
2023-05-04T20:49:41.084Z,99.90
2023-05-04T20:51:43.844Z,99.90
2023-05-04T20:53:48.688Z,99.90
2023-05-04T20:55:50.473Z,99.90
2023-05-04T20:57:53.375Z,99.90
2023-05-04T20:59:55.170Z,99.90
2023-05-04T21:02:06.771Z,99.90
2023-05-04T21:04:08.598Z,99.90
2023-05-04T21:06:11.497Z,99.90
2023-05-04T21:08:13.109Z,99.90
2023-05-04T21:10:15.676Z,99.90
2023-05-04T21:12:17.534Z,99.90
2023-05-04T21:14:19.691Z,99.90
2023-05-04T21:16:21.605Z,99.90
2023-05-04T21:18:24.666Z,99.90
2023-05-04T21:20:26.600Z,99.90
2023-05-04T21:22:28.614Z,99.90
2023-05-04T21:24:33.288Z,99.90
2023-05-04T21:26:35.141Z,99.90
2023-05-04T21:28:41.047Z,99.90
2023-05-04T21:30:43.509Z,99.90
2023-05-04T21:32:45.240Z,99.90
2023-05-04T21:34:51.847Z,99.90
2023-05-04T21:36:53.940Z,99.90
2023-05-04T21:38:57.691Z,99.90
2023-05-04T21:41:08.901Z,99.90
2023-05-04T21:43:10.610Z,99.90
2023-05-04T21:45:12.299Z,99.90
2023-05-04T21:47:15.086Z,99.90
2023-05-04T21:49:17.046Z,99.90
2023-05-04T21:51:20.688Z,99.90
2023-05-04T21:53:22.692Z,99.90
2023-05-04T21:55:24.425Z,99.90
2023-05-04T21:57:26.121Z,99.90
2023-05-04T21:59:30.016Z,99.90
2023-05-04T22:01:31.968Z,99.90
2023-05-04T22:03:34.878Z,99.90
2023-05-04T22:05:36.841Z,99.90
2023-05-04T22:07:38.444Z,99.90
2023-05-04T22:09:40.102Z,99.90
2023-05-04T22:11:41.858Z,99.90
2023-05-04T22:13:44.486Z,99.90
2023-05-04T22:15:50.627Z,99.90
2023-05-04T22:17:52.730Z,99.90
2023-05-04T22:19:54.472Z,99.90
2023-05-04T22:21:57.144Z,99.90
2023-05-04T22:23:59.141Z,99.90
2023-05-04T22:26:00.792Z,99.90
2023-05-04T22:28:02.993Z,99.90
2023-05-04T22:30:04.976Z,99.90
2023-05-04T22:32:07.634Z,99.90
2023-05-04T22:34:09.312Z,99.90
2023-05-04T22:36:12.499Z,99.90
2023-05-04T22:38:14.585Z,99.90
2023-05-04T22:40:16.429Z,99.90
2023-05-04T22:42:18.122Z,99.90
2023-05-04T22:44:19.814Z,99.90
2023-05-04T22:46:21.717Z,99.90
2023-05-04T22:48:23.427Z,99.90
2023-05-04T22:50:31.182Z,99.90
2023-05-04T22:52:32.987Z,99.90
2023-05-04T22:54:35.937Z,99.90
2023-05-04T22:56:37.606Z,99.90
2023-05-04T22:58:39.328Z,99.90
2023-05-04T23:00:41.122Z,99.90
2023-05-04T23:02:43.087Z,99.90
2023-05-04T23:04:44.830Z,99.90
2023-05-04T23:06:46.652Z,99.90
2023-05-04T23:08:49.336Z,99.90
2023-05-04T23:10:51.013Z,99.90
2023-05-04T23:12:53.835Z,99.90
2023-05-04T23:14:57.009Z,99.90
2023-05-04T23:17:07.305Z,99.90
2023-05-04T23:19:08.955Z,99.90
2023-05-04T23:21:10.736Z,99.90
2023-05-04T23:23:12.504Z,99.90
2023-05-04T23:25:14.190Z,99.90
2023-05-04T23:27:15.848Z,99.90
2023-05-04T23:29:17.621Z,99.90
2023-05-04T23:31:20.580Z,99.90
2023-05-04T23:33:22.568Z,99.90
2023-05-04T23:35:24.385Z,99.90
2023-05-04T23:37:33.166Z,99.90
2023-05-04T23:39:34.981Z,99.90
2023-05-04T23:41:38.223Z,99.90
2023-05-04T23:43:39.817Z,99.90
2023-05-04T23:45:41.511Z,99.90
2023-05-04T23:47:43.196Z,99.90
2023-05-04T23:49:46.012Z,99.90
2023-05-04T23:51:53.384Z,99.90
2023-05-04T23:53:55.754Z,99.90
2023-05-04T23:55:58.191Z,99.90
2023-05-04T23:57:59.881Z,99.90
